West Turin, New York
Current Conditions -  °F | °C
As of 6:53 PM on Sunday 23 Nov 2014 (Local Time) from KRME Reporting Station
Scattered Clouds Scattered Clouds  
Wind Chill: 42°   Ceiling: Unl
Heat Index: 46°   Visibility: 10mi
Dew Point: 38°   Wind: 8mph
Humidity: 73%   Direction: 90°E
Pressure: 29.99"   Gusts: NA
Location:  43.5832°N, 75.5707°W
Report Text: KRME 232353Z 09007KT 10SM SCT055 08/03 A2999 RMK AO2 SLP157 60000 T00780033 10106 20072 58017
Loading
Personal Weather Stations






























Interactive Weather Map New forecast layout! Learn more

10-Day Weather Forecast

Advertisements
Track Severe Weather on mobile